Rechercher aéroport 
image banner adimage banner adimage banner ad
image banner ad

CL95 - County Headquarters Bldg

Situé à San Bernardino, United States

ICAO - CL95, IATA -

Données fournies par Airmate  

Information générale

Coordonnées: N34°6'11" W117°16'19"
Élévation : 1040 feet MSL.
Variation magnétique : 14° East
Voir autres Aéroports à California

Données opérationnelles

Special qualification required
Heure actuelle UTC:
Heure actuelle locale:
Météo à : KSBD - San Bernardino Intl ( 4 km )
METAR: KSBD 300051Z 26012KT 7SM FEW100 36/07 A2985
TAF: KSBD 292325Z 3000/3024 26011KT P6SM FEW100 FM300400 VRB05KT P6SM SCT150 FM302100 25011KT P6SM SCT150
Voir NOTAMs / SUP AIP / TFR affectant cet aéroport [VIEW]
Fréquences de communication: [VIEW]

Pistes:

Coordonnées de l'aéroport

Adresse: San Bernardino United States

Vue satellite de CL95